Time;durP1;ratioP1;P1;durP2;ratioP2;P2;SDS_P1;SDS_P2;PMS_P1;PMS_P2;Temp;Humidity;BMP_temperature;BMP_pressure;BME280_temperature;BME280_humidity;BME280_pressure;Samples;Min_cycle;Max_cycle;Signal;HPM_P1;HPM_P2
2023/06/01 00:01:27;;;;;;;4.80;4.30;;;15.40;99.90;;;;;;4993835;28;20549;-77
2023/06/01 00:03:52;;;;;;;5.90;4.83;;;15.40;99.90;;;;;;5010543;28;20444;-76
2023/06/01 00:06:18;;;;;;;4.93;4.50;;;15.30;99.90;;;;;;5009609;28;20215;-77
2023/06/01 00:08:43;;;;;;;15.23;5.23;;;15.30;99.90;;;;;;5011894;28;20171;-77
2023/06/01 00:11:09;;;;;;;5.00;4.60;;;15.30;99.90;;;;;;5012005;28;20582;-77
2023/06/01 00:13:35;;;;;;;5.10;4.60;;;15.30;99.90;;;;;;5011647;28;20675;-77
2023/06/01 00:16:00;;;;;;;6.30;4.90;;;15.20;99.90;;;;;;5012500;28;20240;-77
2023/06/01 00:18:27;;;;;;;6.67;5.40;;;15.20;99.90;;;;;;5009733;28;20644;-78
2023/06/01 00:20:53;;;;;;;5.80;5.30;;;15.20;99.90;;;;;;5011117;28;20174;-77
2023/06/01 00:23:19;;;;;;;6.27;4.70;;;15.20;99.90;;;;;;5011768;28;20812;-76
2023/06/01 00:25:45;;;;;;;6.83;5.03;;;15.20;99.90;;;;;;5012846;28;20219;-77
2023/06/01 00:28:11;;;;;;;8.80;5.17;;;15.20;99.90;;;;;;4990364;28;20443;-77
2023/06/01 00:30:37;;;;;;;5.00;4.30;;;15.20;99.90;;;;;;5011614;28;20453;-77
2023/06/01 00:33:02;;;;;;;4.73;4.33;;;15.30;99.90;;;;;;5011810;28;20253;-77
2023/06/01 00:35:28;;;;;;;5.13;4.73;;;15.20;99.90;;;;;;5014354;28;20333;-77
2023/06/01 00:37:53;;;;;;;5.37;4.60;;;15.10;99.90;;;;;;5010886;28;22025;-77
2023/06/01 00:40:19;;;;;;;9.90;5.00;;;15.00;99.90;;;;;;5007009;28;20283;-78
2023/06/01 00:42:44;;;;;;;8.50;5.00;;;14.90;99.90;;;;;;5010058;28;20215;-78
2023/06/01 00:45:10;;;;;;;4.63;4.20;;;14.80;99.90;;;;;;5012711;28;20254;-77
2023/06/01 00:47:43;;;;;;;4.87;4.43;;;14.70;99.90;;;;;;5011481;28;20267;-74
2023/06/01 00:50:12;;;;;;;7.37;6.07;;;14.80;99.90;;;;;;5011030;28;20595;-79
2023/06/01 00:52:38;;;;;;;4.77;4.20;;;14.80;99.90;;;;;;5007995;28;20469;-77
2023/06/01 00:55:05;;;;;;;6.30;4.07;;;14.80;99.90;;;;;;5010560;28;20539;-77
2023/06/01 00:57:32;;;;;;;5.50;5.00;;;14.80;99.90;;;;;;5010797;28;20513;-77
2023/06/01 00:59:57;;;;;;;5.00;4.50;;;14.80;99.90;;;;;;5013697;28;20950;-77
2023/06/01 01:02:23;;;;;;;5.60;4.93;;;14.70;99.90;;;;;;5014528;28;20456;-77
2023/06/01 01:04:52;;;;;;;7.10;4.83;;;14.50;99.90;;;;;;5011192;28;20619;-77
2023/06/01 01:07:44;;;;;;;5.50;5.03;;;14.50;99.90;;;;;;5015667;28;20198;-77
2023/06/01 01:10:28;;;;;;;10.43;5.23;;;14.40;99.90;;;;;;5012374;28;20532;-77
2023/06/01 01:13:00;;;;;;;5.53;4.47;;;14.30;99.90;;;;;;5014826;28;20766;-77
2023/06/01 01:15:35;;;;;;;5.20;4.70;;;14.20;99.90;;;;;;5012911;28;22161;-77
2023/06/01 01:18:04;;;;;;;5.90;5.10;;;14.20;99.90;;;;;;5011971;28;20813;-77
2023/06/01 01:20:43;;;;;;;5.20;4.80;;;14.20;99.90;;;;;;4997612;28;20907;-78
2023/06/01 01:23:24;;;;;;;5.43;4.93;;;14.20;99.90;;;;;;5014453;28;20437;-77
2023/06/01 01:26:13;;;;;;;5.47;4.97;;;14.30;99.90;;;;;;5011968;28;20461;-77
2023/06/01 01:28:42;;;;;;;7.00;5.73;;;14.20;99.90;;;;;;5014743;28;20437;-77
2023/06/01 01:31:12;;;;;;;4.63;4.23;;;14.20;99.90;;;;;;5014939;28;20430;-77
2023/06/01 01:33:39;;;;;;;7.30;4.77;;;14.20;99.90;;;;;;5012985;28;20445;-77
2023/06/01 01:36:07;;;;;;;6.10;5.50;;;14.20;99.90;;;;;;5017727;28;20457;-78
2023/06/01 01:38:36;;;;;;;5.97;4.43;;;14.10;99.90;;;;;;5014059;28;20429;-77
2023/06/01 01:41:02;;;;;;;5.70;4.50;;;14.00;99.90;;;;;;5014694;28;20429;-78
2023/06/01 01:43:28;;;;;;;6.10;4.70;;;14.10;99.90;;;;;;5012597;28;20965;-78
2023/06/01 01:46:08;;;;;;;7.43;5.40;;;14.10;99.90;;;;;;5015621;28;20469;-77
2023/06/01 01:49:05;;;;;;;4.50;3.80;;;14.00;99.90;;;;;;5011108;28;20429;-77
2023/06/01 01:51:50;;;;;;;6.83;4.63;;;13.90;99.90;;;;;;4987938;28;20798;-77
2023/06/01 01:54:17;;;;;;;5.40;4.60;;;13.90;99.90;;;;;;5012809;28;20442;-77
2023/06/01 01:56:44;;;;;;;8.73;5.10;;;13.90;99.90;;;;;;5012834;28;20457;-78
2023/06/01 01:59:10;;;;;;;9.73;4.23;;;13.90;99.90;;;;;;5012220;28;20444;-77
2023/06/01 02:01:36;;;;;;;8.50;4.67;;;13.90;99.90;;;;;;5014367;28;20810;-78
2023/06/01 02:04:03;;;;;;;8.53;4.40;;;14.00;99.90;;;;;;5012464;28;20452;-77
2023/06/01 02:06:29;;;;;;;5.17;4.20;;;13.90;99.90;;;;;;5018180;28;20487;-77
2023/06/01 02:08:54;;;;;;;5.37;4.33;;;13.90;99.90;;;;;;5011324;28;21009;-77
2023/06/01 02:11:20;;;;;;;5.70;4.97;;;13.80;99.90;;;;;;5013618;28;20175;-78
2023/06/01 02:13:46;;;;;;;4.83;4.43;;;13.70;99.90;;;;;;5000850;28;20182;-77
2023/06/01 02:16:12;;;;;;;6.83;5.00;;;13.60;99.90;;;;;;5012691;28;20246;-77
2023/06/01 02:18:39;;;;;;;5.50;4.73;;;13.60;99.90;;;;;;5012151;28;20465;-77
2023/06/01 02:21:05;;;;;;;4.70;4.20;;;13.60;99.90;;;;;;5010861;28;20469;-77
2023/06/01 02:23:30;;;;;;;6.30;4.73;;;13.60;99.90;;;;;;5011226;28;20434;-78
2023/06/01 02:25:56;;;;;;;4.47;4.07;;;13.60;99.90;;;;;;5010730;28;21140;-77
2023/06/01 02:28:21;;;;;;;6.20;4.10;;;13.60;99.90;;;;;;5010176;28;20183;-77
2023/06/01 02:30:47;;;;;;;10.40;4.67;;;13.70;99.90;;;;;;5012684;28;20278;-77
2023/06/01 02:33:13;;;;;;;5.00;4.50;;;13.80;99.90;;;;;;5015086;28;20651;-77
2023/06/01 02:35:39;;;;;;;4.37;3.93;;;13.70;99.90;;;;;;4995560;28;20272;-77
2023/06/01 02:38:05;;;;;;;8.23;4.47;;;13.70;99.90;;;;;;5009648;28;20183;-78
2023/06/01 02:40:30;;;;;;;4.70;3.60;;;13.50;99.90;;;;;;5011694;28;20934;-78
2023/06/01 02:42:56;;;;;;;5.77;4.00;;;13.50;99.90;;;;;;5012926;28;20657;-77
2023/06/01 02:45:21;;;;;;;7.13;4.83;;;13.40;99.90;;;;;;5019472;28;20256;-78
2023/06/01 02:47:47;;;;;;;8.10;5.97;;;13.40;99.90;;;;;;5011354;28;22021;-77
2023/06/01 02:50:12;;;;;;;5.70;4.50;;;13.40;99.90;;;;;;5012677;28;20287;-77
2023/06/01 02:52:38;;;;;;;5.27;4.10;;;13.40;99.90;;;;;;5017059;28;20170;-78
2023/06/01 02:55:05;;;;;;;5.03;4.17;;;13.40;99.90;;;;;;5013272;28;20179;-78
2023/06/01 02:57:31;;;;;;;4.80;3.90;;;13.40;99.90;;;;;;5013016;28;20171;-77
2023/06/01 02:59:59;;;;;;;5.90;4.53;;;13.30;99.90;;;;;;5010779;28;20437;-77
2023/06/01 03:02:26;;;;;;;7.30;4.40;;;13.20;99.90;;;;;;5011232;28;20175;-77
2023/06/01 03:04:52;;;;;;;5.30;4.33;;;13.20;99.90;;;;;;5012730;28;20945;-77
2023/06/01 03:07:18;;;;;;;5.13;4.63;;;13.10;99.90;;;;;;5011094;28;20466;-77
2023/06/01 03:09:44;;;;;;;4.83;4.53;;;13.10;99.90;;;;;;5012651;28;20492;-77
2023/06/01 03:12:10;;;;;;;9.00;5.47;;;13.10;99.90;;;;;;5012236;28;20934;-77
2023/06/01 03:14:35;;;;;;;5.27;4.60;;;13.10;99.90;;;;;;5016192;28;20171;-78
2023/06/01 03:17:01;;;;;;;5.30;4.80;;;13.10;99.90;;;;;;5013930;28;20477;-77
2023/06/01 03:19:26;;;;;;;4.50;4.10;;;13.10;99.90;;;;;;5013956;28;20687;-77
2023/06/01 03:21:52;;;;;;;5.30;3.53;;;13.10;99.90;;;;;;5011717;28;20532;-78
2023/06/01 03:24:18;;;;;;;8.87;4.80;;;13.00;99.90;;;;;;5008853;28;20293;-77
2023/06/01 03:26:43;;;;;;;5.53;4.63;;;13.00;99.90;;;;;;5011100;28;20566;-77
2023/06/01 03:29:09;;;;;;;6.33;5.20;;;13.10;99.90;;;;;;5011424;28;20439;-77
2023/06/01 03:31:34;;;;;;;5.40;4.70;;;13.00;99.90;;;;;;5014477;28;20179;-76
2023/06/01 03:34:01;;;;;;;5.00;4.50;;;12.90;99.90;;;;;;5012833;28;20565;-77
2023/06/01 03:36:27;;;;;;;4.63;4.23;;;12.90;99.90;;;;;;5011647;28;20234;-77
2023/06/01 03:38:53;;;;;;;5.87;5.37;;;12.90;99.90;;;;;;5011687;28;20885;-77
2023/06/01 03:41:18;;;;;;;5.20;4.53;;;12.80;99.90;;;;;;5010698;28;20449;-77
2023/06/01 03:43:44;;;;;;;5.87;5.30;;;12.80;99.90;;;;;;4993726;28;20194;-77
2023/06/01 03:46:10;;;;;;;5.43;4.90;;;12.80;99.90;;;;;;5012338;28;20206;-77
2023/06/01 03:48:35;;;;;;;6.67;5.20;;;12.80;99.90;;;;;;5010326;28;20175;-77
2023/06/01 03:51:01;;;;;;;7.10;6.30;;;12.80;99.90;;;;;;5012381;28;20183;-77
2023/06/01 03:53:27;;;;;;;8.33;5.17;;;12.80;99.90;;;;;;5012217;28;20179;-77
2023/06/01 03:55:52;;;;;;;5.83;4.43;;;12.90;99.90;;;;;;5012146;28;20645;-77
2023/06/01 03:58:19;;;;;;;5.23;4.73;;;12.90;99.90;;;;;;5009260;28;20183;-77
2023/06/01 04:00:46;;;;;;;6.23;4.80;;;12.90;99.90;;;;;;4992388;28;20671;-77
2023/06/01 04:03:13;;;;;;;4.77;4.37;;;12.90;99.90;;;;;;5015521;28;20445;-78
2023/06/01 04:05:38;;;;;;;11.07;5.40;;;13.00;99.90;;;;;;4994366;28;20476;-77
2023/06/01 04:08:04;;;;;;;4.53;4.10;;;13.10;99.90;;;;;;5014967;28;20999;-78
2023/06/01 04:10:30;;;;;;;7.30;4.37;;;13.10;99.90;;;;;;5011535;28;20179;-76
2023/06/01 04:12:56;;;;;;;7.50;5.20;;;13.30;99.90;;;;;;5006913;28;20273;-76
2023/06/01 04:15:22;;;;;;;5.20;4.40;;;13.40;99.90;;;;;;5011433;28;20219;-76
2023/06/01 04:17:48;;;;;;;6.03;4.60;;;13.60;99.90;;;;;;5011118;28;20671;-76
2023/06/01 04:20:15;;;;;;;7.23;5.20;;;13.70;99.90;;;;;;5011021;28;20453;-77
2023/06/01 04:22:42;;;;;;;9.47;6.93;;;13.80;99.90;;;;;;5010809;28;20434;-77
2023/06/01 04:25:11;;;;;;;5.63;5.00;;;13.90;99.90;;;;;;5013873;28;20454;-77
2023/06/01 04:27:37;;;;;;;5.23;4.73;;;13.90;99.90;;;;;;4992929;28;20491;-76
2023/06/01 04:30:10;;;;;;;6.43;4.77;;;14.00;99.90;;;;;;5017520;28;20444;-77
2023/06/01 04:32:37;;;;;;;5.87;5.37;;;14.20;99.90;;;;;;5011194;28;20920;-76
2023/06/01 04:35:05;;;;;;;7.10;4.93;;;14.40;99.90;;;;;;5010803;28;20445;-76
2023/06/01 04:37:35;;;;;;;7.60;5.50;;;14.60;99.90;;;;;;5009749;28;20492;-78
2023/06/01 04:40:08;;;;;;;7.70;6.40;;;14.60;99.90;;;;;;5002785;28;20433;-76
2023/06/01 04:42:38;;;;;;;5.37;4.97;;;14.80;99.90;;;;;;4994046;28;20437;-76
2023/06/01 04:45:07;;;;;;;8.50;5.30;;;15.00;99.90;;;;;;5011053;28;20442;-76
2023/06/01 04:47:37;;;;;;;6.10;5.27;;;15.20;99.90;;;;;;5011513;28;20434;-74
2023/06/01 04:50:04;;;;;;;5.90;5.30;;;15.40;99.90;;;;;;5015312;28;20436;-75
2023/06/01 04:52:30;;;;;;;7.40;4.90;;;15.50;99.90;;;;;;5011300;28;20809;-76
2023/06/01 04:54:56;;;;;;;10.60;6.43;;;15.60;99.90;;;;;;5010960;28;20430;-74
2023/06/01 04:57:23;;;;;;;5.43;4.67;;;15.80;99.90;;;;;;5010126;28;20194;-75
2023/06/01 04:59:48;;;;;;;6.00;5.23;;;16.00;99.90;;;;;;5015103;28;20674;-77
2023/06/01 05:02:14;;;;;;;7.77;5.50;;;16.10;99.90;;;;;;5009391;28;20438;-75
2023/06/01 05:04:40;;;;;;;6.90;4.90;;;16.30;99.90;;;;;;5010065;28;20179;-75
2023/06/01 05:07:05;;;;;;;6.57;5.40;;;16.40;99.90;;;;;;5009581;28;20209;-76
2023/06/01 05:09:31;;;;;;;7.60;5.80;;;16.60;99.90;;;;;;5007517;28;20434;-77
2023/06/01 05:11:57;;;;;;;6.03;5.43;;;16.60;99.90;;;;;;5016596;28;20266;-75
2023/06/01 05:14:22;;;;;;;6.60;5.67;;;16.80;99.90;;;;;;5010985;28;20182;-75
2023/06/01 05:16:48;;;;;;;7.87;6.00;;;16.90;99.90;;;;;;5011478;28;20297;-75
2023/06/01 05:19:14;;;;;;;8.53;5.50;;;17.00;99.90;;;;;;5010586;28;20706;-75
2023/06/01 05:21:42;;;;;;;6.93;4.87;;;17.10;99.90;;;;;;5008638;28;20183;-75
2023/06/01 05:24:08;;;;;;;7.57;5.80;;;17.20;99.90;;;;;;5008489;28;20654;-75
2023/06/01 05:26:33;;;;;;;6.33;4.53;;;17.40;99.90;;;;;;5014450;28;20572;-76
2023/06/01 05:28:59;;;;;;;7.23;5.47;;;17.60;99.90;;;;;;5010137;28;20171;-75
2023/06/01 05:31:24;;;;;;;11.93;6.13;;;17.70;99.90;;;;;;5014101;28;20869;-75
2023/06/01 05:33:51;;;;;;;6.50;5.20;;;17.90;99.90;;;;;;5010951;28;20175;-75
2023/06/01 05:36:17;;;;;;;6.60;6.00;;;18.00;99.90;;;;;;5010699;28;20199;-76
2023/06/01 05:38:42;;;;;;;6.00;5.50;;;18.20;99.90;;;;;;5009570;28;20444;-76
2023/06/01 05:41:08;;;;;;;5.67;5.10;;;18.30;99.90;;;;;;5000902;28;20270;-75
2023/06/01 05:43:37;;;;;;;7.00;5.10;;;18.30;99.90;;;;;;5012199;28;20179;-76
2023/06/01 05:46:03;;;;;;;6.67;5.30;;;18.20;99.90;;;;;;5011650;28;20468;-76
2023/06/01 05:48:28;;;;;;;5.03;4.53;;;18.20;99.90;;;;;;5013443;28;20442;-75
2023/06/01 05:50:54;;;;;;;4.70;4.30;;;18.40;99.90;;;;;;5014189;28;20551;-75
2023/06/01 05:53:22;;;;;;;6.03;4.30;;;18.60;99.90;;;;;;5017527;28;20178;-76
2023/06/01 05:55:48;;;;;;;7.47;4.73;;;18.70;99.90;;;;;;5013460;28;20203;-76
2023/06/01 05:58:14;;;;;;;9.00;4.30;;;18.90;99.90;;;;;;5008320;28;20437;-76
2023/06/01 06:00:39;;;;;;;5.00;4.40;;;19.00;99.90;;;;;;5012856;28;20639;-76
2023/06/01 06:03:05;;;;;;;7.27;4.27;;;19.10;99.90;;;;;;5005777;28;20183;-76
2023/06/01 06:05:30;;;;;;;5.17;4.17;;;19.20;99.90;;;;;;5014426;28;20210;-76
2023/06/01 06:07:56;;;;;;;4.80;4.13;;;19.40;99.90;;;;;;5013733;28;20206;-76
2023/06/01 06:10:21;;;;;;;8.03;4.70;;;19.50;99.90;;;;;;5012672;28;20175;-76
2023/06/01 06:12:47;;;;;;;7.13;4.47;;;19.60;99.90;;;;;;5007998;28;20684;-76
2023/06/01 06:15:13;;;;;;;5.33;4.70;;;19.80;99.90;;;;;;5012962;28;20699;-76
2023/06/01 06:17:38;;;;;;;6.17;4.10;;;19.80;99.90;;;;;;5010498;28;20171;-76
2023/06/01 06:20:08;;;;;;;5.50;5.00;;;19.90;99.90;;;;;;5013285;28;20190;-77
2023/06/01 06:22:34;;;;;;;5.53;4.97;;;20.00;99.90;;;;;;5013888;28;20175;-76
2023/06/01 06:25:00;;;;;;;6.67;4.50;;;20.10;99.90;;;;;;5011201;28;20451;-76
2023/06/01 06:27:26;;;;;;;5.70;4.43;;;20.10;99.90;;;;;;5013285;28;20461;-76
2023/06/01 06:29:51;;;;;;;5.53;4.43;;;20.20;99.90;;;;;;5011556;28;20251;-76
2023/06/01 06:32:19;;;;;;;7.23;4.67;;;20.30;99.90;;;;;;5009566;28;20442;-76
2023/06/01 06:34:45;;;;;;;6.83;4.73;;;20.40;99.70;;;;;;5013876;28;20670;-76
2023/06/01 06:37:11;;;;;;;6.67;4.63;;;20.50;99.40;;;;;;5026873;28;20445;-77
2023/06/01 06:39:37;;;;;;;5.50;5.00;;;20.60;99.40;;;;;;5023410;28;20182;-77
2023/06/01 06:42:04;;;;;;;6.53;4.57;;;20.60;98.90;;;;;;5010694;28;20183;-77
2023/06/01 06:44:29;;;;;;;5.07;4.57;;;20.70;98.00;;;;;;5015139;28;20529;-78
2023/06/01 06:46:55;;;;;;;6.93;5.17;;;20.80;97.00;;;;;;5014554;28;20556;-78
2023/06/01 06:49:20;;;;;;;6.50;4.57;;;20.90;96.40;;;;;;5017394;28;20253;-75
2023/06/01 06:51:46;;;;;;;5.73;5.23;;;20.90;95.70;;;;;;5010693;28;20193;-76
2023/06/01 06:54:12;;;;;;;9.00;4.73;;;21.00;95.20;;;;;;5017866;28;20175;-77
2023/06/01 06:56:37;;;;;;;11.00;4.70;;;21.10;94.70;;;;;;5008145;28;20210;-76
2023/06/01 06:59:03;;;;;;;5.43;4.67;;;21.10;95.00;;;;;;5014140;28;20651;-78
2023/06/01 07:01:28;;;;;;;7.50;4.40;;;21.30;95.20;;;;;;5009095;28;20187;-77
2023/06/01 07:03:55;;;;;;;7.57;5.13;;;21.50;94.40;;;;;;5009936;28;20644;-77
2023/06/01 07:06:22;;;;;;;11.37;5.20;;;21.70;93.70;;;;;;5010288;28;20203;-78
2023/06/01 07:08:48;;;;;;;10.53;5.10;;;21.90;92.90;;;;;;5011298;28;20519;-78
2023/06/01 07:11:14;;;;;;;9.97;5.60;;;22.00;93.20;;;;;;4992998;28;20525;-77
2023/06/01 07:13:39;;;;;;;7.00;5.23;;;22.20;92.50;;;;;;5015814;28;20240;-78
2023/06/01 07:16:05;;;;;;;6.40;5.03;;;22.20;92.20;;;;;;5011399;28;20207;-78
2023/06/01 07:18:31;;;;;;;7.20;5.93;;;22.30;92.20;;;;;;5010724;28;20179;-79
2023/06/01 07:20:57;;;;;;;4.80;4.20;;;22.50;91.50;;;;;;5008137;28;20326;-77
2023/06/01 07:23:23;;;;;;;8.70;5.70;;;22.60;91.70;;;;;;5005196;28;20194;-77
2023/06/01 07:25:49;;;;;;;8.87;5.37;;;22.80;90.80;;;;;;5010033;28;20470;-77
2023/06/01 07:28:15;;;;;;;5.60;4.77;;;22.90;90.50;;;;;;5007870;28;20595;-77
2023/06/01 07:30:41;;;;;;;6.97;5.70;;;22.90;90.40;;;;;;5012590;28;20181;-77
2023/06/01 07:33:07;;;;;;;7.10;5.70;;;23.00;90.30;;;;;;5018489;28;20422;-77
2023/06/01 07:35:33;;;;;;;8.33;5.40;;;23.20;89.60;;;;;;5012135;28;20442;-77
2023/06/01 07:37:58;;;;;;;8.30;6.00;;;23.20;89.30;;;;;;5012569;28;20421;-77
2023/06/01 07:40:24;;;;;;;8.10;5.77;;;23.20;88.30;;;;;;5012793;28;20183;-76
2023/06/01 07:42:49;;;;;;;7.93;5.33;;;23.20;88.20;;;;;;5017867;28;20186;-77
2023/06/01 07:45:15;;;;;;;10.83;5.67;;;23.40;87.50;;;;;;5015750;28;20195;-77
2023/06/01 07:47:41;;;;;;;8.63;5.73;;;23.60;86.60;;;;;;4997116;28;20175;-77
2023/06/01 07:50:07;;;;;;;8.50;5.77;;;23.80;85.60;;;;;;5011642;28;20558;-77
2023/06/01 07:52:33;;;;;;;5.63;5.13;;;23.90;84.40;;;;;;5012856;28;20167;-76
2023/06/01 07:54:58;;;;;;;7.93;5.53;;;24.00;84.70;;;;;;5012871;28;20772;-77
2023/06/01 07:57:24;;;;;;;15.23;5.93;;;24.20;83.30;;;;;;5012771;28;20547;-77
2023/06/01 07:59:50;;;;;;;7.50;5.80;;;24.20;83.20;;;;;;5011507;28;20186;-77
2023/06/01 08:02:15;;;;;;;8.67;5.70;;;24.40;82.30;;;;;;5014546;28;20313;-78
2023/06/01 08:04:41;;;;;;;9.13;6.37;;;24.40;81.40;;;;;;5012547;28;20462;-77
2023/06/01 08:07:07;;;;;;;9.43;6.40;;;24.60;80.40;;;;;;5012291;28;20206;-77
2023/06/01 08:09:32;;;;;;;8.63;5.57;;;24.60;80.90;;;;;;5012882;28;20179;-77
2023/06/01 08:11:58;;;;;;;6.10;5.47;;;24.60;80.80;;;;;;5014093;28;20254;-74
2023/06/01 08:14:24;;;;;;;6.70;5.43;;;24.80;79.60;;;;;;5011896;28;20171;-75
2023/06/01 08:16:51;;;;;;;8.03;5.80;;;24.80;80.00;;;;;;5018705;28;20209;-74
2023/06/01 08:19:17;;;;;;;6.63;4.63;;;24.90;79.80;;;;;;5019823;28;20437;-75
2023/06/01 08:21:43;;;;;;;7.27;6.10;;;24.80;79.90;;;;;;5003543;28;20440;-76
2023/06/01 08:24:08;;;;;;;6.33;5.83;;;24.80;78.20;;;;;;5025608;28;20428;-75
2023/06/01 08:26:37;;;;;;;6.60;5.50;;;25.00;75.80;;;;;;5027827;28;20198;-77
2023/06/01 08:29:03;;;;;;;9.03;5.63;;;25.20;74.90;;;;;;5026152;28;20371;-78
2023/06/01 08:31:28;;;;;;;6.07;4.90;;;25.30;74.50;;;;;;5022875;28;20439;-76
2023/06/01 08:33:55;;;;;;;6.43;4.90;;;25.50;72.60;;;;;;5025495;28;20636;-77
2023/06/01 08:36:21;;;;;;;9.50;4.77;;;25.70;72.50;;;;;;5023705;28;20249;-77
2023/06/01 08:38:49;;;;;;;9.73;5.93;;;25.80;71.70;;;;;;5011624;28;20417;-76
2023/06/01 08:41:29;;;;;;;9.03;5.70;;;26.00;70.40;;;;;;5013176;28;20644;-76
2023/06/01 08:44:01;;;;;;;6.77;5.80;;;25.90;70.60;;;;;;5018343;28;20854;-73
2023/06/01 08:46:29;;;;;;;6.10;5.23;;;26.10;69.20;;;;;;4994127;28;20469;-73
2023/06/01 08:48:56;;;;;;;7.93;6.20;;;26.10;68.90;;;;;;5011615;28;20480;-74
2023/06/01 08:51:23;;;;;;;10.00;6.37;;;26.30;68.70;;;;;;5012518;28;20434;-74
2023/06/01 08:53:50;;;;;;;6.67;6.07;;;26.40;67.60;;;;;;5020066;28;20952;-74
2023/06/01 08:56:16;;;;;;;6.53;5.83;;;26.50;67.80;;;;;;5011703;28;20438;-75
2023/06/01 08:58:43;;;;;;;7.50;5.60;;;26.60;68.20;;;;;;5011475;28;20428;-75
2023/06/01 09:01:15;;;;;;;7.90;6.30;;;26.70;67.30;;;;;;5011408;28;20444;-75
2023/06/01 09:03:41;;;;;;;7.30;5.57;;;26.80;66.10;;;;;;5011866;28;20425;-76
2023/06/01 09:06:06;;;;;;;7.63;6.93;;;27.00;65.40;;;;;;5011649;28;20464;-75
2023/06/01 09:08:32;;;;;;;16.43;6.20;;;27.00;63.40;;;;;;5013116;28;20171;-74
2023/06/01 09:10:58;;;;;;;7.17;6.40;;;27.00;64.70;;;;;;5018369;28;20175;-76
2023/06/01 09:13:36;;;;;;;10.30;6.30;;;27.20;63.80;;;;;;5023064;28;20209;-74
2023/06/01 09:16:02;;;;;;;7.43;6.63;;;27.40;63.30;;;;;;5031151;28;20891;-75
2023/06/01 09:18:28;;;;;;;7.20;6.33;;;27.50;61.90;;;;;;5031236;28;20528;-74
2023/06/01 09:20:56;;;;;;;10.10;6.00;;;27.10;62.80;;;;;;5021276;28;20265;-74
2023/06/01 09:23:28;;;;;;;6.63;5.93;;;27.30;62.70;;;;;;5015417;28;20422;-75
2023/06/01 09:26:12;;;;;;;12.13;6.70;;;27.70;61.50;;;;;;5015431;28;20980;-74
2023/06/01 09:28:54;;;;;;;6.40;5.80;;;28.00;60.90;;;;;;5015238;28;20449;-75
2023/06/01 09:31:39;;;;;;;6.83;5.70;;;28.30;59.90;;;;;;5022703;28;20506;-75
2023/06/01 09:34:05;;;;;;;10.50;6.20;;;28.50;58.90;;;;;;4995688;28;20752;-75
2023/06/01 09:36:31;;;;;;;7.23;6.63;;;28.70;58.90;;;;;;4995705;28;20442;-75
2023/06/01 09:39:08;;;;;;;6.93;6.33;;;29.10;57.70;;;;;;4995353;28;20429;-75
2023/06/01 09:41:53;;;;;;;6.23;5.63;;;29.50;57.40;;;;;;5010248;28;20455;-75
2023/06/01 09:44:45;;;;;;;7.23;6.20;;;29.90;56.20;;;;;;5015090;28;20429;-75
2023/06/01 09:47:12;;;;;;;8.00;6.47;;;30.30;54.90;;;;;;5010522;28;20914;-75
2023/06/01 09:49:42;;;;;;;11.47;6.90;;;30.60;54.30;;;;;;5014828;28;20422;-75
2023/06/01 09:52:16;;;;;;;8.93;6.60;;;31.30;53.20;;;;;;5018510;28;20441;-75
2023/06/01 09:54:49;;;;;;;8.10;7.30;;;31.30;51.90;;;;;;5020542;28;20427;-75
2023/06/01 09:57:23;;;;;;;8.20;7.40;;;31.20;52.20;;;;;;5034210;28;20425;-75
2023/06/01 09:59:49;;;;;;;8.53;6.93;;;31.60;51.10;;;;;;5021894;28;20434;-75
2023/06/01 10:02:20;;;;;;;7.77;7.07;;;31.70;50.50;;;;;;5020666;28;20449;-75
2023/06/01 10:04:49;;;;;;;7.67;6.97;;;32.50;49.90;;;;;;5017615;28;20175;-75
2023/06/01 10:07:16;;;;;;;7.67;6.33;;;33.20;49.40;;;;;;5015502;28;20450;-75
2023/06/01 10:09:44;;;;;;;8.77;6.77;;;33.70;47.50;;;;;;5004178;28;20826;-75
2023/06/01 10:12:10;;;;;;;6.83;6.23;;;34.10;46.20;;;;;;5022565;28;20452;-75
2023/06/01 10:14:38;;;;;;;7.30;6.63;;;34.80;45.50;;;;;;5019351;28;20422;-69
2023/06/01 10:17:04;;;;;;;6.40;5.80;;;35.20;44.30;;;;;;5018043;28;20214;-71
2023/06/01 10:19:30;;;;;;;7.53;6.83;;;35.70;43.00;;;;;;5015553;28;20436;-71
2023/06/01 10:21:59;;;;;;;10.23;7.07;;;35.90;41.60;;;;;;5015722;28;20610;-71
2023/06/01 10:24:26;;;;;;;7.40;6.30;;;35.80;41.10;;;;;;5022956;28;20437;-72
2023/06/01 10:27:05;;;;;;;7.67;6.87;;;35.00;40.40;;;;;;5025028;28;20480;-71
2023/06/01 10:29:32;;;;;;;6.37;5.97;;;35.00;41.90;;;;;;5020114;28;20521;-71
2023/06/01 10:31:57;;;;;;;7.20;6.50;;;36.00;39.80;;;;;;5016548;28;20476;-72
2023/06/01 10:34:44;;;;;;;6.83;5.77;;;36.50;38.20;;;;;;5021532;28;20490;-72
2023/06/01 10:37:11;;;;;;;8.00;7.40;;;36.50;37.50;;;;;;5034003;28;20189;-72
2023/06/01 10:39:37;;;;;;;8.63;7.00;;;37.20;36.60;;;;;;5033517;28;20474;-72
2023/06/01 10:42:15;;;;;;;6.80;5.20;;;36.70;36.20;;;;;;5019954;28;20491;-72
2023/06/01 10:44:46;;;;;;;7.70;6.30;;;37.70;34.20;;;;;;5013784;28;20429;-72
2023/06/01 10:47:12;;;;;;;7.20;6.33;;;38.40;33.20;;;;;;5013833;28;20457;-72
2023/06/01 10:49:49;;;;;;;6.23;5.73;;;37.40;32.90;;;;;;5013641;28;20499;-74
2023/06/01 10:52:30;;;;;;;7.03;6.33;;;36.20;34.70;;;;;;5017965;28;20177;-74
2023/06/01 10:55:11;;;;;;;7.50;6.27;;;37.30;33.00;;;;;;5013875;28;20425;-71
2023/06/01 10:57:37;;;;;;;6.90;5.93;;;37.40;31.90;;;;;;5012952;28;20508;-70
2023/06/01 11:00:27;;;;;;;6.37;5.87;;;38.90;33.20;;;;;;5006514;28;20418;-71
2023/06/01 11:02:57;;;;;;;6.30;5.80;;;39.70;31.90;;;;;;5013776;28;20569;-68
2023/06/01 11:05:48;;;;;;;6.80;6.23;;;40.00;30.70;;;;;;5013589;28;20456;-70
2023/06/01 11:08:20;;;;;;;8.20;5.90;;;40.20;30.10;;;;;;5016871;28;20809;-71
2023/06/01 11:10:53;;;;;;;9.70;6.40;;;40.60;29.10;;;;;;5022004;28;20434;-71
2023/06/01 11:13:22;;;;;;;8.80;7.30;;;39.90;29.20;;;;;;5013568;28;20863;-72
2023/06/01 11:16:22;;;;;;;7.07;6.47;;;41.10;29.00;;;;;;5013746;28;20474;-72
2023/06/01 11:18:59;;;;;;;10.50;5.93;;;41.00;28.90;;;;;;5018864;28;20478;-72
2023/06/01 11:21:33;;;;;;;6.93;6.23;;;41.10;29.70;;;;;;5013380;28;20410;-72
2023/06/01 11:24:03;;;;;;;7.07;6.47;;;41.20;29.70;;;;;;5025676;28;20428;-72
2023/06/01 11:26:31;;;;;;;5.90;5.40;;;41.60;28.90;;;;;;5032915;28;20510;-72
2023/06/01 11:29:08;;;;;;;6.77;6.17;;;41.40;28.70;;;;;;5028017;28;20434;-72
2023/06/01 11:31:36;;;;;;;8.03;6.70;;;41.50;28.80;;;;;;5018001;28;20425;-72
2023/06/01 11:34:02;;;;;;;6.73;6.20;;;42.00;28.50;;;;;;5032823;28;20786;-72
2023/06/01 11:36:28;;;;;;;6.97;6.37;;;43.40;27.50;;;;;;5032772;28;20444;-72
2023/06/01 11:38:57;;;;;;;7.50;6.23;;;41.60;25.10;;;;;;5027950;28;20589;-72
2023/06/01 11:41:23;;;;;;;7.23;6.73;;;41.70;26.30;;;;;;5013084;28;20429;-72
2023/06/01 11:43:58;;;;;;;5.63;5.33;;;43.10;29.50;;;;;;5023020;28;20559;-77
2023/06/01 11:46:26;;;;;;;7.07;6.37;;;43.20;28.70;;;;;;5029425;28;20201;-74
2023/06/01 11:49:04;;;;;;;7.50;6.90;;;43.60;29.30;;;;;;5017007;28;20468;-75
2023/06/01 11:51:37;;;;;;;7.20;6.50;;;44.50;29.30;;;;;;5014501;28;20422;-75
2023/06/01 11:54:03;;;;;;;6.37;5.87;;;44.60;23.80;;;;;;5014736;28;20505;-75
2023/06/01 11:56:34;;;;;;;8.70;6.70;;;44.30;22.80;;;;;;5012088;28;20474;-74
2023/06/01 11:59:02;;;;;;;7.43;6.73;;;44.80;23.10;;;;;;5011673;28;20430;-74
2023/06/01 12:01:28;;;;;;;6.70;6.00;;;44.70;22.60;;;;;;5012561;28;20417;-74
2023/06/01 12:03:56;;;;;;;6.77;6.30;;;45.40;22.60;;;;;;5017297;28;20513;-75
2023/06/01 12:06:24;;;;;;;6.20;5.60;;;45.50;22.20;;;;;;5012050;28;20253;-75
2023/06/01 12:08:52;;;;;;;6.83;5.97;;;45.60;22.30;;;;;;5015454;28;20472;-74
2023/06/01 12:11:21;;;;;;;7.13;6.53;;;45.70;22.20;;;;;;5012469;28;20505;-75
2023/06/01 12:13:48;;;;;;;7.87;7.03;;;45.90;21.80;;;;;;5012452;28;20430;-74
2023/06/01 12:16:16;;;;;;;6.30;5.80;;;45.40;21.30;;;;;;5012037;28;20501;-73
2023/06/01 12:18:41;;;;;;;7.13;6.27;;;44.60;21.40;;;;;;5011185;28;20434;-73
2023/06/01 12:21:16;;;;;;;5.70;5.20;;;44.90;21.80;;;;;;5016630;28;20567;-73
2023/06/01 12:23:43;;;;;;;6.90;6.20;;;44.30;21.40;;;;;;5012177;28;20163;-73
2023/06/01 12:26:09;;;;;;;7.83;7.03;;;44.10;21.40;;;;;;5012288;28;20781;-73
2023/06/01 12:28:48;;;;;;;9.10;5.90;;;42.40;22.20;;;;;;5011939;28;20433;-73
2023/06/01 12:31:15;;;;;;;7.70;7.20;;;43.30;22.60;;;;;;5015905;28;20174;-74
2023/06/01 12:33:45;;;;;;;6.80;6.17;;;41.70;22.60;;;;;;5011976;28;20492;-73
2023/06/01 12:36:28;;;;;;;7.17;6.57;;;42.40;22.60;;;;;;5012089;28;20465;-73
2023/06/01 12:38:54;;;;;;;6.07;5.50;;;43.50;22.40;;;;;;5011736;28;20994;-73
2023/06/01 12:41:21;;;;;;;7.00;6.40;;;44.10;21.90;;;;;;5013829;28;20517;-73
2023/06/01 12:43:48;;;;;;;6.90;6.40;;;43.50;21.70;;;;;;5011996;28;20533;-73
2023/06/01 12:46:21;;;;;;;6.90;6.33;;;42.80;21.60;;;;;;5011907;28;20942;-73
2023/06/01 12:48:47;;;;;;;6.83;6.30;;;41.00;21.80;;;;;;5011638;28;20428;-73
2023/06/01 12:51:13;;;;;;;6.07;5.60;;;40.20;22.70;;;;;;5011981;28;20520;-74